createdAt,value
2022-12-25T00:01:10.315Z,99740.25
2022-12-25T00:03:37.966Z,99739.91
2022-12-25T00:06:05.161Z,99737.47
2022-12-25T00:08:32.439Z,99742.63
2022-12-25T00:11:00.039Z,99741.13
2022-12-25T00:13:26.724Z,99728.75
2022-12-25T00:15:53.403Z,99736.31
2022-12-25T00:18:20.011Z,99739.56
2022-12-25T00:20:56.713Z,99732.16
2022-12-25T00:23:23.310Z,99735.34
2022-12-25T00:25:49.908Z,99735.13
2022-12-25T00:28:16.604Z,99740.16
2022-12-25T00:30:43.160Z,99732.94
2022-12-25T00:33:09.703Z,99732.59
2022-12-25T00:35:36.284Z,99728.25
2022-12-25T00:38:02.839Z,99731.22
2022-12-25T00:40:29.401Z,99738.00
2022-12-25T00:42:55.999Z,99735.00
2022-12-25T00:45:22.732Z,99745.88
2022-12-25T00:47:49.347Z,99747.25
2022-12-25T00:50:15.870Z,99752.75
2022-12-25T00:52:42.452Z,99757.06
2022-12-25T00:55:09.257Z,99747.47
2022-12-25T00:57:35.854Z,99764.88
2022-12-25T01:00:02.653Z,99770.84
2022-12-25T01:02:29.328Z,99775.81
2022-12-25T01:04:57.286Z,99781.53
2022-12-25T01:07:25.889Z,99785.09
2022-12-25T01:10:11.094Z,99793.91
2022-12-25T01:12:40.803Z,99797.97
2022-12-25T01:15:09.443Z,99800.28
2022-12-25T01:17:36.254Z,99797.53
2022-12-25T01:20:03.181Z,99801.41
2022-12-25T01:22:29.829Z,99808.28
2022-12-25T01:24:56.355Z,99808.09
2022-12-25T01:27:22.888Z,99811.28
2022-12-25T01:29:49.431Z,99810.63
2022-12-25T01:32:16.006Z,99814.75
2022-12-25T01:34:42.582Z,99819.81
2022-12-25T01:37:09.219Z,99814.44
2022-12-25T01:39:35.819Z,99815.91
2022-12-25T01:42:02.343Z,99813.91
2022-12-25T01:44:37.805Z,99815.59
2022-12-25T01:47:05.712Z,99814.34
2022-12-25T01:49:35.013Z,99814.34
2022-12-25T01:52:12.158Z,99808.84
2022-12-25T01:54:43.539Z,99808.50
2022-12-25T01:57:17.058Z,99803.88
2022-12-25T01:59:44.108Z,99804.00
2022-12-25T02:02:11.818Z,99807.63
2022-12-25T02:05:23.612Z,99815.81
2022-12-25T02:07:51.155Z,99811.81
2022-12-25T02:10:18.261Z,99816.56
2022-12-25T02:12:46.197Z,99819.63
2022-12-25T02:15:17.268Z,99822.94
2022-12-25T02:18:25.798Z,99825.69
2022-12-25T02:21:14.003Z,99821.56
2022-12-25T02:24:15.114Z,99820.72
2022-12-25T02:27:02.898Z,99817.25
2022-12-25T02:29:47.981Z,99825.69
2022-12-25T02:32:25.113Z,99827.16
2022-12-25T02:34:54.411Z,99831.84
2022-12-25T02:37:53.617Z,99810.50
2022-12-25T02:40:29.064Z,99818.06
2022-12-25T02:43:49.035Z,99816.44
2022-12-25T02:46:37.771Z,99817.72
2022-12-25T02:49:28.715Z,99802.66
2022-12-25T02:52:20.778Z,99800.53
2022-12-25T02:55:16.767Z,99803.41
2022-12-25T02:58:08.985Z,99805.59
2022-12-25T03:01:00.791Z,99796.63
2022-12-25T03:03:51.532Z,99792.50
2022-12-25T03:06:39.093Z,99803.69
2022-12-25T03:09:27.615Z,99807.56
2022-12-25T03:12:13.220Z,99816.50
2022-12-25T03:14:58.457Z,99807.63
2022-12-25T03:17:25.304Z,99805.88
2022-12-25T03:20:10.523Z,99814.69
2022-12-25T03:22:56.414Z,99811.22
2022-12-25T03:25:41.683Z,99812.41
2022-12-25T03:28:08.231Z,99801.41
2022-12-25T03:31:17.213Z,99808.63
2022-12-25T03:34:46.768Z,99819.19
2022-12-25T03:37:31.645Z,99813.34
2022-12-25T03:40:42.135Z,99811.56
2022-12-25T03:43:39.496Z,99808.00
2022-12-25T03:46:29.728Z,99810.09
2022-12-25T03:49:23.652Z,99814.41
2022-12-25T03:52:10.239Z,99817.13
2022-12-25T03:54:57.844Z,99826.88
2022-12-25T03:57:43.304Z,99815.31
2022-12-25T04:00:28.961Z,99817.38
2022-12-25T04:03:13.880Z,99809.81
2022-12-25T04:05:59.121Z,99814.22
2022-12-25T04:08:43.897Z,99808.28
2022-12-25T04:11:28.851Z,99804.97
2022-12-25T04:14:13.908Z,99807.19
2022-12-25T04:16:58.791Z,99804.56
2022-12-25T04:19:43.945Z,99812.00
2022-12-25T04:22:29.219Z,99799.72
2022-12-25T04:25:14.392Z,99810.78
2022-12-25T04:27:59.278Z,99813.75
2022-12-25T04:30:44.606Z,99818.75
2022-12-25T04:33:29.399Z,99821.38
2022-12-25T04:36:11.994Z,99816.38
2022-12-25T04:38:40.236Z,99827.19
2022-12-25T04:41:08.620Z,99827.19
2022-12-25T04:43:35.381Z,99830.09
2022-12-25T04:46:03.385Z,99840.47
2022-12-25T04:48:32.212Z,99836.47
2022-12-25T04:50:59.000Z,99846.22
2022-12-25T04:53:25.592Z,99841.81
2022-12-25T04:56:01.204Z,99843.13
2022-12-25T04:58:27.753Z,99841.72
2022-12-25T05:00:54.261Z,99849.63
2022-12-25T05:03:20.789Z,99852.69
2022-12-25T05:05:48.737Z,99843.72
2022-12-25T05:08:15.244Z,99836.50
2022-12-25T05:10:41.780Z,99844.19
2022-12-25T05:13:08.338Z,99833.03
2022-12-25T05:15:34.948Z,99840.41
2022-12-25T05:18:01.514Z,99834.38
2022-12-25T05:20:28.070Z,99831.16
2022-12-25T05:22:54.580Z,99831.31
2022-12-25T05:25:21.126Z,99824.66
2022-12-25T05:27:53.780Z,99827.56
2022-12-25T05:30:20.637Z,99816.69
2022-12-25T05:32:48.231Z,99829.63
2022-12-25T05:35:14.808Z,99828.16
2022-12-25T05:37:41.322Z,99831.84
2022-12-25T05:40:08.611Z,99833.31
2022-12-25T05:42:35.181Z,99834.44
2022-12-25T05:45:01.745Z,99825.47
2022-12-25T05:47:28.251Z,99831.16
2022-12-25T05:49:54.778Z,99830.91
2022-12-25T05:52:21.292Z,99822.06
2022-12-25T05:54:47.919Z,99825.25
2022-12-25T05:57:14.451Z,99828.69
2022-12-25T05:59:41.034Z,99820.66
2022-12-25T06:02:07.807Z,99818.25
2022-12-25T06:04:34.364Z,99813.75
2022-12-25T06:07:00.887Z,99815.22
2022-12-25T06:09:27.443Z,99826.03
2022-12-25T06:11:54.062Z,99820.09
2022-12-25T06:14:20.624Z,99820.28
2022-12-25T06:16:51.768Z,99815.75
2022-12-25T06:19:19.234Z,99829.28
2022-12-25T06:21:45.792Z,99822.44
2022-12-25T06:24:19.220Z,99828.78
2022-12-25T06:26:47.968Z,99827.19
2022-12-25T06:29:14.840Z,99835.16
2022-12-25T06:31:41.701Z,99847.69
2022-12-25T06:34:08.588Z,99844.84
2022-12-25T06:36:37.729Z,99854.72
2022-12-25T06:39:04.349Z,99846.66
2022-12-25T06:41:31.488Z,99851.31
2022-12-25T06:43:59.990Z,99846.88
2022-12-25T06:46:28.606Z,99851.97
2022-12-25T06:48:55.694Z,99851.94
2022-12-25T06:51:28.583Z,99854.84
2022-12-25T06:53:55.773Z,99855.06
2022-12-25T06:56:25.557Z,99850.63
2022-12-25T06:58:55.426Z,99855.97
2022-12-25T07:01:26.617Z,99861.56
2022-12-25T07:03:57.789Z,99867.16
2022-12-25T07:06:24.414Z,99868.38
2022-12-25T07:08:51.188Z,99875.88
2022-12-25T07:11:18.132Z,99878.41
2022-12-25T07:13:44.709Z,99879.47
2022-12-25T07:16:12.400Z,99877.34
2022-12-25T07:18:39.612Z,99895.00
2022-12-25T07:21:17.606Z,99895.94
2022-12-25T07:23:46.052Z,99889.84
2022-12-25T07:26:13.671Z,99883.94
2022-12-25T07:28:40.670Z,99882.69
2022-12-25T07:31:10.880Z,99883.22
2022-12-25T07:33:37.540Z,99892.03
2022-12-25T07:36:05.521Z,99903.63
2022-12-25T07:38:32.841Z,99901.84
2022-12-25T07:40:59.576Z,99904.09
2022-12-25T07:43:26.444Z,99899.59
2022-12-25T07:45:59.864Z,99916.66
2022-12-25T07:48:27.807Z,99912.25
2022-12-25T07:51:05.774Z,99930.28
2022-12-25T07:53:33.171Z,99926.44
2022-12-25T07:56:08.182Z,99931.06
2022-12-25T07:58:35.143Z,99920.38
2022-12-25T08:01:07.045Z,99921.41
2022-12-25T08:03:35.547Z,99916.84
2022-12-25T08:06:04.529Z,99918.00
2022-12-25T08:08:31.193Z,99922.59
2022-12-25T08:10:57.865Z,99917.09
2022-12-25T08:13:24.505Z,99924.59
2022-12-25T08:15:51.194Z,99921.94
2022-12-25T08:18:17.761Z,99926.63
2022-12-25T08:20:44.283Z,99935.84
2022-12-25T08:23:10.873Z,99923.03
2022-12-25T08:25:37.448Z,99929.16
2022-12-25T08:28:04.152Z,99930.66
2022-12-25T08:30:30.794Z,99931.44
2022-12-25T08:32:57.409Z,99926.88
2022-12-25T08:35:24.172Z,99935.59
2022-12-25T08:37:50.814Z,99936.06
2022-12-25T08:40:18.007Z,99935.84
2022-12-25T08:42:44.664Z,99946.22
2022-12-25T08:45:11.571Z,99950.38
2022-12-25T08:47:38.110Z,99939.19
2022-12-25T08:50:05.476Z,99936.66
2022-12-25T08:52:32.201Z,99936.75
2022-12-25T08:54:58.779Z,99932.91
2022-12-25T08:57:25.373Z,99940.00
2022-12-25T08:59:51.910Z,99937.34
2022-12-25T09:02:18.946Z,99942.88
2022-12-25T09:04:46.743Z,99946.44
2022-12-25T09:07:13.399Z,99948.31
2022-12-25T09:09:40.008Z,99936.53
2022-12-25T09:12:06.843Z,99943.22
2022-12-25T09:14:33.348Z,99940.53
2022-12-25T09:16:59.915Z,99923.66
2022-12-25T09:19:26.463Z,99926.84
2022-12-25T09:21:52.989Z,99925.44
2022-12-25T09:24:20.674Z,99931.09
2022-12-25T09:26:47.214Z,99929.84
2022-12-25T09:29:14.760Z,99930.91
2022-12-25T09:31:42.232Z,99942.91
2022-12-25T09:34:13.787Z,99936.63
2022-12-25T09:36:43.600Z,99941.44
2022-12-25T09:39:10.139Z,99937.19
2022-12-25T09:41:53.661Z,99931.94
2022-12-25T09:44:26.418Z,99933.22
2022-12-25T09:47:01.608Z,99922.13
2022-12-25T09:49:43.616Z,99913.06
2022-12-25T09:52:15.908Z,99920.28
2022-12-25T09:54:48.437Z,99914.13
2022-12-25T09:57:15.765Z,99913.91
2022-12-25T09:59:44.794Z,99910.09
2022-12-25T10:02:29.629Z,99903.91
2022-12-25T10:05:17.689Z,99898.97
2022-12-25T10:07:57.183Z,99901.59
2022-12-25T10:10:49.876Z,99892.59
2022-12-25T10:13:46.538Z,99899.81
2022-12-25T10:16:20.177Z,99896.28
2022-12-25T10:19:04.892Z,99898.47
2022-12-25T10:21:31.935Z,99899.22
2022-12-25T10:23:58.470Z,99903.09
2022-12-25T10:26:26.330Z,99908.78
2022-12-25T10:29:19.515Z,99896.53
2022-12-25T10:31:48.682Z,99901.13
2022-12-25T10:34:16.379Z,99900.25
2022-12-25T10:36:45.928Z,99906.47
2022-12-25T10:39:20.677Z,99887.41
2022-12-25T10:42:18.307Z,99887.91
2022-12-25T10:44:57.748Z,99886.41
2022-12-25T10:47:31.129Z,99890.41
2022-12-25T10:49:58.818Z,99884.16
2022-12-25T10:52:28.338Z,99875.38
2022-12-25T10:54:55.653Z,99882.13
2022-12-25T10:57:24.871Z,99886.72
2022-12-25T10:59:56.087Z,99872.25
2022-12-25T11:02:36.242Z,99879.81
2022-12-25T11:05:09.215Z,99871.00
2022-12-25T11:10:20.049Z,99869.06
2022-12-25T11:12:47.067Z,99866.94
2022-12-25T11:18:22.919Z,99865.03
2022-12-25T11:23:26.532Z,99862.25
2022-12-25T11:26:06.697Z,99863.16
2022-12-25T11:28:37.064Z,99859.13
2022-12-25T11:31:19.735Z,99849.09
2022-12-25T11:34:07.646Z,99845.59
2022-12-25T11:36:49.442Z,99836.84
2022-12-25T11:39:25.026Z,99835.84
2022-12-25T11:41:56.560Z,99832.34
2022-12-25T11:44:35.315Z,99815.19
2022-12-25T11:47:13.009Z,99819.38
2022-12-25T11:50:08.057Z,99823.47
2022-12-25T11:52:38.890Z,99818.84
2022-12-25T11:55:39.769Z,99820.81
2022-12-25T12:06:43.686Z,99813.97
2022-12-25T12:18:01.750Z,99815.03
2022-12-25T12:23:35.827Z,99808.78
2022-12-25T12:31:52.783Z,99797.31
2022-12-25T12:34:26.860Z,99801.03
2022-12-25T12:45:16.994Z,99799.72
2022-12-25T12:47:49.682Z,99790.84
2022-12-25T12:50:31.608Z,99790.56
2022-12-25T12:52:58.915Z,99795.63
2022-12-25T12:55:43.726Z,99794.03
2022-12-25T12:58:33.195Z,99797.53
2022-12-25T13:01:18.172Z,99803.31
2022-12-25T13:15:51.942Z,99773.94
2022-12-25T13:18:19.292Z,99775.41
2022-12-25T13:20:54.884Z,99774.94
2022-12-25T13:23:32.650Z,99770.47
2022-12-25T13:26:20.729Z,99768.03
2022-12-25T13:28:47.594Z,99757.97
2022-12-25T13:31:25.760Z,99753.63
2022-12-25T13:34:16.473Z,99755.91
2022-12-25T13:36:43.506Z,99745.59
2022-12-25T13:39:16.831Z,99745.53
2022-12-25T13:42:08.632Z,99747.19
2022-12-25T13:44:47.057Z,99749.19
2022-12-25T13:47:26.072Z,99740.97
2022-12-25T13:49:55.314Z,99742.34
2022-12-25T13:52:27.485Z,99736.06
2022-12-25T13:55:20.522Z,99747.66
2022-12-25T13:57:59.321Z,99744.69
2022-12-25T14:00:32.444Z,99745.38
2022-12-25T14:02:59.699Z,99738.84
2022-12-25T14:05:42.348Z,99729.03
2022-12-25T14:08:27.517Z,99733.50
2022-12-25T14:10:54.449Z,99734.31
2022-12-25T14:13:28.440Z,99746.69
2022-12-25T14:15:56.642Z,99739.03
2022-12-25T14:18:24.764Z,99751.81
2022-12-25T14:21:21.675Z,99756.28
2022-12-25T14:23:50.171Z,99746.34
2022-12-25T14:26:19.040Z,99752.88
2022-12-25T14:28:51.670Z,99746.78
2022-12-25T14:31:19.497Z,99741.97
2022-12-25T14:33:46.914Z,99747.94
2022-12-25T14:36:14.267Z,99745.31
2022-12-25T14:38:42.561Z,99744.72
2022-12-25T14:41:24.194Z,99750.44
2022-12-25T14:43:55.739Z,99752.47
2022-12-25T14:46:27.796Z,99755.09
2022-12-25T14:49:20.864Z,99752.09
2022-12-25T14:51:47.473Z,99744.75
2022-12-25T14:54:17.081Z,99748.88
2022-12-25T14:56:48.375Z,99748.75
2022-12-25T14:59:20.630Z,99745.53
2022-12-25T15:01:57.609Z,99748.13
2022-12-25T15:04:26.173Z,99741.81
2022-12-25T15:07:00.851Z,99741.72
2022-12-25T15:09:29.933Z,99741.09
2022-12-25T15:11:56.935Z,99737.25
2022-12-25T15:14:24.975Z,99728.41
2022-12-25T15:16:54.761Z,99732.84
2022-12-25T15:19:37.428Z,99723.91
2022-12-25T15:22:05.023Z,99723.63
2022-12-25T15:24:31.562Z,99731.06
2022-12-25T15:27:00.374Z,99734.47
2022-12-25T15:30:00.224Z,99728.19
2022-12-25T15:32:23.800Z,99719.50
2022-12-25T15:34:50.658Z,99716.75
2022-12-25T15:37:18.542Z,99715.94
2022-12-25T15:39:45.755Z,99718.09
2022-12-25T15:42:14.846Z,99715.75
2022-12-25T15:44:42.626Z,99710.16
2022-12-25T15:47:13.309Z,99705.19
2022-12-25T15:49:39.841Z,99703.59
2022-12-25T15:52:08.196Z,99709.06
2022-12-25T15:54:34.856Z,99714.09
2022-12-25T15:57:04.113Z,99707.47
2022-12-25T15:59:31.297Z,99711.00
2022-12-25T16:02:00.994Z,99697.50
2022-12-25T16:04:28.956Z,99695.63
2022-12-25T16:06:56.094Z,99689.53
2022-12-25T16:09:22.699Z,99693.00
2022-12-25T16:11:50.173Z,99698.34
2022-12-25T16:14:16.916Z,99707.38
2022-12-25T16:16:43.451Z,99701.28
2022-12-25T16:19:10.065Z,99707.56
2022-12-25T16:21:43.034Z,99709.50
2022-12-25T16:24:09.608Z,99710.97
2022-12-25T16:26:36.178Z,99706.75
2022-12-25T16:29:07.314Z,99702.53
2022-12-25T16:31:35.530Z,99699.16
2022-12-25T16:34:02.240Z,99696.75
2022-12-25T16:36:28.951Z,99680.31
2022-12-25T16:38:55.541Z,99680.31
2022-12-25T16:41:22.220Z,99668.94
2022-12-25T16:43:48.901Z,99657.13
2022-12-25T16:46:18.215Z,99658.25
2022-12-25T16:48:45.234Z,99661.03
2022-12-25T16:51:17.651Z,99667.50
2022-12-25T16:53:44.746Z,99662.53
2022-12-25T16:56:16.371Z,99652.09
2022-12-25T16:58:46.602Z,99643.81
2022-12-25T17:01:16.737Z,99631.53
2022-12-25T17:03:43.765Z,99641.53
2022-12-25T17:06:19.823Z,99635.22
2022-12-25T17:08:47.439Z,99632.81
2022-12-25T17:11:15.451Z,99632.59
2022-12-25T17:13:46.256Z,99650.66
2022-12-25T17:16:25.438Z,99649.38
2022-12-25T17:18:56.857Z,99645.56
2022-12-25T17:21:25.015Z,99648.34
2022-12-25T17:23:55.328Z,99647.38
2022-12-25T17:26:24.801Z,99642.25
2022-12-25T17:28:51.774Z,99636.91
2022-12-25T17:31:18.916Z,99632.41
2022-12-25T17:33:45.848Z,99639.97
2022-12-25T17:36:15.928Z,99642.69
2022-12-25T17:38:43.776Z,99643.47
2022-12-25T17:41:13.148Z,99642.69
2022-12-25T17:43:42.099Z,99632.53
2022-12-25T17:46:12.422Z,99629.00
2022-12-25T17:48:39.015Z,99632.53
2022-12-25T17:51:07.526Z,99630.41
2022-12-25T17:53:39.092Z,99614.66
2022-12-25T17:56:06.507Z,99616.72
2022-12-25T17:58:33.098Z,99613.34
2022-12-25T18:01:09.107Z,99611.72
2022-12-25T18:03:36.799Z,99607.59
2022-12-25T18:06:05.009Z,99626.28
2022-12-25T18:08:38.652Z,99626.94
2022-12-25T18:11:08.761Z,99601.34
2022-12-25T18:13:35.980Z,99610.69
2022-12-25T18:16:07.205Z,99608.09
2022-12-25T18:18:34.722Z,99607.31
2022-12-25T18:21:02.241Z,99595.56
2022-12-25T18:23:29.380Z,99585.44
2022-12-25T18:25:56.140Z,99588.16
2022-12-25T18:28:22.754Z,99582.19
2022-12-25T18:30:49.834Z,99578.88
2022-12-25T18:33:16.418Z,99574.56
2022-12-25T18:35:44.324Z,99570.59
2022-12-25T18:38:11.708Z,99557.31
2022-12-25T18:40:47.055Z,99572.78
2022-12-25T18:43:14.641Z,99573.72
2022-12-25T18:45:42.310Z,99571.09
2022-12-25T18:48:10.392Z,99559.38
2022-12-25T18:50:39.509Z,99556.16
2022-12-25T18:53:06.926Z,99547.94
2022-12-25T18:55:33.593Z,99545.56
2022-12-25T18:58:00.245Z,99544.28
2022-12-25T19:00:28.080Z,99537.22
2022-12-25T19:02:59.383Z,99527.06
2022-12-25T19:05:26.271Z,99525.63
2022-12-25T19:07:53.043Z,99526.06
2022-12-25T19:10:19.684Z,99522.56
2022-12-25T19:12:46.333Z,99519.50
2022-12-25T19:15:13.288Z,99515.13
2022-12-25T19:17:39.996Z,99515.13
2022-12-25T19:20:07.532Z,99512.09
2022-12-25T19:22:34.030Z,99514.66
2022-12-25T19:25:00.635Z,99509.28
2022-12-25T19:27:27.208Z,99508.34
2022-12-25T19:29:53.732Z,99504.78
2022-12-25T19:32:20.413Z,99502.25
2022-12-25T19:34:46.994Z,99499.69
2022-12-25T19:37:15.080Z,99497.44
2022-12-25T19:39:46.580Z,99493.84
2022-12-25T19:42:16.029Z,99493.03
2022-12-25T19:44:43.302Z,99482.44
2022-12-25T19:47:11.055Z,99478.75
2022-12-25T19:49:37.586Z,99488.09
2022-12-25T19:52:04.338Z,99486.84
2022-12-25T19:54:31.284Z,99485.03
2022-12-25T19:56:57.997Z,99497.00
2022-12-25T19:59:24.576Z,99491.59
2022-12-25T20:01:51.286Z,99486.25
2022-12-25T20:04:18.288Z,99480.13
2022-12-25T20:06:45.342Z,99472.38
2022-12-25T20:09:21.015Z,99466.09
2022-12-25T20:11:48.739Z,99464.16
2022-12-25T20:14:17.150Z,99465.31
2022-12-25T20:16:44.659Z,99470.44
2022-12-25T20:19:12.956Z,99463.97
2022-12-25T20:21:40.225Z,99459.75
2022-12-25T20:24:10.182Z,99456.56
2022-12-25T20:26:37.984Z,99461.69
2022-12-25T20:29:05.060Z,99462.19
2022-12-25T20:31:34.386Z,99458.63
2022-12-25T20:34:05.841Z,99465.03
2022-12-25T20:36:37.283Z,99465.50
2022-12-25T20:39:09.427Z,99465.16
2022-12-25T20:41:37.205Z,99461.97
2022-12-25T20:44:04.366Z,99456.50
2022-12-25T20:46:31.120Z,99459.44
2022-12-25T20:48:57.757Z,99457.84
2022-12-25T20:51:26.461Z,99461.69
2022-12-25T20:53:54.258Z,99460.09
2022-12-25T20:56:23.346Z,99455.28
2022-12-25T20:58:58.316Z,99463.50
2022-12-25T21:01:26.056Z,99462.59
2022-12-25T21:03:53.190Z,99460.97
2022-12-25T21:06:20.903Z,99469.19
2022-12-25T21:08:47.593Z,99467.91
2022-12-25T21:11:15.595Z,99465.16
2022-12-25T21:13:45.208Z,99467.44
2022-12-25T21:16:15.416Z,99460.50
2022-12-25T21:18:42.211Z,99463.03
2022-12-25T21:21:09.634Z,99474.91
2022-12-25T21:23:38.916Z,99462.84
2022-12-25T21:26:19.551Z,99466.78
2022-12-25T21:28:51.317Z,99459.09
2022-12-25T21:31:19.017Z,99469.56
2022-12-25T21:33:52.322Z,99480.06
2022-12-25T21:36:26.999Z,99483.06
2022-12-25T21:39:04.023Z,99480.78
2022-12-25T21:41:31.870Z,99483.88
2022-12-25T21:43:59.070Z,99488.53
2022-12-25T21:46:26.562Z,99494.41
2022-12-25T21:48:54.438Z,99503.09
2022-12-25T21:51:43.317Z,99501.34
2022-12-25T21:54:10.695Z,99509.13
2022-12-25T21:56:44.096Z,99506.38
2022-12-25T21:59:22.123Z,99507.47
2022-12-25T22:01:50.600Z,99498.56
2022-12-25T22:04:20.002Z,99491.22
2022-12-25T22:07:05.571Z,99496.56
2022-12-25T22:09:32.374Z,99491.81
2022-12-25T22:12:17.922Z,99497.75
2022-12-25T22:14:54.706Z,99490.88
2022-12-25T22:17:46.378Z,99493.59
2022-12-25T22:20:17.650Z,99496.50
2022-12-25T22:22:44.691Z,99505.50
2022-12-25T22:25:12.294Z,99515.13
2022-12-25T22:27:40.123Z,99510.47
2022-12-25T22:30:09.558Z,99497.66
2022-12-25T22:32:36.331Z,99501.00
2022-12-25T22:35:03.531Z,99506.47
2022-12-25T22:37:30.074Z,99494.78
2022-12-25T22:39:57.522Z,99490.78
2022-12-25T22:42:24.439Z,99497.97
2022-12-25T22:44:51.113Z,99497.03
2022-12-25T22:47:17.736Z,99489.94
2022-12-25T22:49:44.295Z,99496.22
2022-12-25T22:52:10.985Z,99502.00
2022-12-25T22:54:37.655Z,99501.00
2022-12-25T22:57:05.279Z,99494.28
2022-12-25T22:59:32.976Z,99503.91
2022-12-25T23:02:00.755Z,99503.75
2022-12-25T23:04:28.320Z,99495.38
2022-12-25T23:06:54.952Z,99500.34
2022-12-25T23:09:27.979Z,99491.19
2022-12-25T23:11:58.692Z,99490.41
2022-12-25T23:14:39.459Z,99492.78
2022-12-25T23:17:31.671Z,99486.66
2022-12-25T23:20:18.894Z,99485.06
2022-12-25T23:23:04.990Z,99485.72
2022-12-25T23:25:50.802Z,99486.19
2022-12-25T23:28:39.818Z,99488.91
2022-12-25T23:31:07.010Z,99495.47
2022-12-25T23:33:33.719Z,99496.41
2022-12-25T23:36:00.260Z,99499.88
2022-12-25T23:38:26.859Z,99498.59
2022-12-25T23:40:53.437Z,99501.31
2022-12-25T23:43:19.983Z,99493.16
2022-12-25T23:45:46.535Z,99501.50
2022-12-25T23:48:13.079Z,99514.06
2022-12-25T23:50:39.618Z,99505.56
2022-12-25T23:53:06.122Z,99513.44
2022-12-25T23:55:33.521Z,99527.59
2022-12-25T23:58:00.074Z,99516.50
